sensor_id;sensor_type;location;lat;lon;timestamp;P1;durP1;ratioP1;P2;durP2;ratioP2
69894;SDS011;57172;52.034;5.090;2022-08-11T00:01:20;6.07;;;3.10;;
69894;SDS011;57172;52.034;5.090;2022-08-11T00:03:55;5.32;;;3.10;;
69894;SDS011;57172;52.034;5.090;2022-08-11T00:09:03;5.45;;;3.15;;
69894;SDS011;57172;52.034;5.090;2022-08-11T00:11:33;5.72;;;3.13;;
69894;SDS011;57172;52.034;5.090;2022-08-11T00:14:16;7.53;;;3.08;;
69894;SDS011;57172;52.034;5.090;2022-08-11T00:16:55;5.10;;;2.80;;
69894;SDS011;57172;52.034;5.090;2022-08-11T00:19:32;5.77;;;2.90;;
69894;SDS011;57172;52.034;5.090;2022-08-11T00:22:21;6.30;;;2.90;;
69894;SDS011;57172;52.034;5.090;2022-08-11T00:24:49;5.45;;;2.80;;
69894;SDS011;57172;52.034;5.090;2022-08-11T00:27:33;7.03;;;2.85;;
69894;SDS011;57172;52.034;5.090;2022-08-11T00:30:02;7.95;;;2.90;;
69894;SDS011;57172;52.034;5.090;2022-08-11T00:32:31;6.70;;;3.00;;
69894;SDS011;57172;52.034;5.090;2022-08-11T00:34:59;4.28;;;3.00;;
69894;SDS011;57172;52.034;5.090;2022-08-11T00:37:48;7.30;;;3.00;;
69894;SDS011;57172;52.034;5.090;2022-08-11T00:40:18;6.07;;;3.20;;
69894;SDS011;57172;52.034;5.090;2022-08-11T00:42:59;5.22;;;2.88;;
69894;SDS011;57172;52.034;5.090;2022-08-11T00:45:53;5.67;;;2.93;;
69894;SDS011;57172;52.034;5.090;2022-08-11T00:51:42;4.85;;;3.15;;
69894;SDS011;57172;52.034;5.090;2022-08-11T01:00:14;4.10;;;2.70;;
69894;SDS011;57172;52.034;5.090;2022-08-11T01:11:01;5.15;;;2.95;;
69894;SDS011;57172;52.034;5.090;2022-08-11T01:13:52;6.23;;;2.90;;
69894;SDS011;57172;52.034;5.090;2022-08-11T01:25:41;5.88;;;2.88;;
69894;SDS011;57172;52.034;5.090;2022-08-11T01:31:05;5.82;;;3.10;;
69894;SDS011;57172;52.034;5.090;2022-08-11T01:46:38;6.30;;;3.10;;
69894;SDS011;57172;52.034;5.090;2022-08-11T01:49:34;6.03;;;3.35;;
69894;SDS011;57172;52.034;5.090;2022-08-11T01:58:41;5.87;;;3.10;;
69894;SDS011;57172;52.034;5.090;2022-08-11T02:13:23;4.80;;;3.27;;
69894;SDS011;57172;52.034;5.090;2022-08-11T02:19:07;6.72;;;3.40;;
69894;SDS011;57172;52.034;5.090;2022-08-11T02:22:04;4.88;;;3.10;;
69894;SDS011;57172;52.034;5.090;2022-08-11T02:25:20;5.25;;;3.30;;
69894;SDS011;57172;52.034;5.090;2022-08-11T02:28:16;4.93;;;3.30;;
69894;SDS011;57172;52.034;5.090;2022-08-11T02:30:59;5.63;;;3.10;;
69894;SDS011;57172;52.034;5.090;2022-08-11T02:34:34;7.28;;;3.38;;
69894;SDS011;57172;52.034;5.090;2022-08-11T02:37:33;6.25;;;3.30;;
69894;SDS011;57172;52.034;5.090;2022-08-11T02:42:50;4.60;;;3.10;;
69894;SDS011;57172;52.034;5.090;2022-08-11T02:48:37;7.95;;;3.30;;
69894;SDS011;57172;52.034;5.090;2022-08-11T02:54:26;5.40;;;3.40;;
69894;SDS011;57172;52.034;5.090;2022-08-11T02:57:21;5.53;;;3.60;;
69894;SDS011;57172;52.034;5.090;2022-08-11T03:00:13;5.57;;;3.20;;
69894;SDS011;57172;52.034;5.090;2022-08-11T03:05:26;5.97;;;3.50;;
69894;SDS011;57172;52.034;5.090;2022-08-11T03:08:11;6.70;;;3.70;;
69894;SDS011;57172;52.034;5.090;2022-08-11T03:10:53;5.23;;;3.53;;
69894;SDS011;57172;52.034;5.090;2022-08-11T03:14:12;6.65;;;3.70;;
69894;SDS011;57172;52.034;5.090;2022-08-11T03:24:48;5.53;;;3.67;;
69894;SDS011;57172;52.034;5.090;2022-08-11T03:30:15;6.70;;;4.05;;
69894;SDS011;57172;52.034;5.090;2022-08-11T03:36:19;5.72;;;3.40;;
69894;SDS011;57172;52.034;5.090;2022-08-11T03:42:27;9.85;;;3.90;;
69894;SDS011;57172;52.034;5.090;2022-08-11T03:45:24;7.90;;;4.18;;
69894;SDS011;57172;52.034;5.090;2022-08-11T04:11:20;9.38;;;4.30;;
69894;SDS011;57172;52.034;5.090;2022-08-11T04:22:37;6.83;;;4.07;;
69894;SDS011;57172;52.034;5.090;2022-08-11T04:25:33;6.88;;;4.30;;
69894;SDS011;57172;52.034;5.090;2022-08-11T04:28:41;8.27;;;4.50;;
69894;SDS011;57172;52.034;5.090;2022-08-11T04:37:09;8.43;;;4.57;;
69894;SDS011;57172;52.034;5.090;2022-08-11T04:43:04;7.20;;;4.50;;
69894;SDS011;57172;52.034;5.090;2022-08-11T05:02:02;7.88;;;4.10;;
69894;SDS011;57172;52.034;5.090;2022-08-11T05:16:58;8.82;;;4.95;;
69894;SDS011;57172;52.034;5.090;2022-08-11T05:19:54;8.00;;;4.80;;
69894;SDS011;57172;52.034;5.090;2022-08-11T05:22:42;7.50;;;4.73;;
69894;SDS011;57172;52.034;5.090;2022-08-11T05:25:34;7.60;;;4.57;;
69894;SDS011;57172;52.034;5.090;2022-08-11T05:28:45;7.18;;;4.78;;
69894;SDS011;57172;52.034;5.090;2022-08-11T05:31:49;6.55;;;4.35;;
69894;SDS011;57172;52.034;5.090;2022-08-11T05:34:42;9.57;;;4.80;;
69894;SDS011;57172;52.034;5.090;2022-08-11T05:37:21;9.47;;;4.50;;
69894;SDS011;57172;52.034;5.090;2022-08-11T05:39:56;10.27;;;4.93;;
69894;SDS011;57172;52.034;5.090;2022-08-11T05:42:49;10.32;;;5.13;;
69894;SDS011;57172;52.034;5.090;2022-08-11T05:45:40;8.20;;;5.18;;
69894;SDS011;57172;52.034;5.090;2022-08-11T05:48:34;11.45;;;5.10;;
69894;SDS011;57172;52.034;5.090;2022-08-11T05:51:20;10.63;;;4.70;;
69894;SDS011;57172;52.034;5.090;2022-08-11T05:54:23;7.90;;;4.60;;
69894;SDS011;57172;52.034;5.090;2022-08-11T05:57:27;9.55;;;5.20;;
69894;SDS011;57172;52.034;5.090;2022-08-11T06:00:17;9.65;;;5.25;;
69894;SDS011;57172;52.034;5.090;2022-08-11T06:02:48;8.63;;;5.25;;
69894;SDS011;57172;52.034;5.090;2022-08-11T06:05:23;8.30;;;5.30;;
69894;SDS011;57172;52.034;5.090;2022-08-11T06:08:07;9.32;;;4.90;;
69894;SDS011;57172;52.034;5.090;2022-08-11T06:10:36;9.30;;;5.47;;
69894;SDS011;57172;52.034;5.090;2022-08-11T06:13:05;7.43;;;5.00;;
69894;SDS011;57172;52.034;5.090;2022-08-11T06:15:33;8.05;;;5.00;;
69894;SDS011;57172;52.034;5.090;2022-08-11T06:18:10;11.53;;;5.20;;
69894;SDS011;57172;52.034;5.090;2022-08-11T06:20:51;6.95;;;5.30;;
69894;SDS011;57172;52.034;5.090;2022-08-11T06:23:24;8.60;;;5.15;;
69894;SDS011;57172;52.034;5.090;2022-08-11T06:26:01;8.20;;;4.85;;
69894;SDS011;57172;52.034;5.090;2022-08-11T06:28:36;6.50;;;4.70;;
69894;SDS011;57172;52.034;5.090;2022-08-11T06:31:17;9.03;;;4.50;;
69894;SDS011;57172;52.034;5.090;2022-08-11T06:36:21;8.52;;;4.72;;
69894;SDS011;57172;52.034;5.090;2022-08-11T06:39:27;8.70;;;4.63;;
69894;SDS011;57172;52.034;5.090;2022-08-11T06:42:31;9.93;;;4.50;;
69894;SDS011;57172;52.034;5.090;2022-08-11T06:47:52;7.13;;;4.47;;
69894;SDS011;57172;52.034;5.090;2022-08-11T06:50:21;7.93;;;4.32;;
69894;SDS011;57172;52.034;5.090;2022-08-11T06:53:07;7.93;;;4.20;;
69894;SDS011;57172;52.034;5.090;2022-08-11T06:55:37;9.40;;;4.32;;
69894;SDS011;57172;52.034;5.090;2022-08-11T06:58:27;7.93;;;4.13;;
69894;SDS011;57172;52.034;5.090;2022-08-11T07:01:27;8.70;;;3.80;;
69894;SDS011;57172;52.034;5.090;2022-08-11T07:04:03;7.28;;;4.22;;
69894;SDS011;57172;52.034;5.090;2022-08-11T07:06:43;9.13;;;4.15;;
69894;SDS011;57172;52.034;5.090;2022-08-11T07:12:49;6.87;;;3.90;;
69894;SDS011;57172;52.034;5.090;2022-08-11T07:15:57;7.55;;;3.70;;
69894;SDS011;57172;52.034;5.090;2022-08-11T07:18:38;6.13;;;3.78;;
69894;SDS011;57172;52.034;5.090;2022-08-11T07:21:45;7.25;;;3.60;;
69894;SDS011;57172;52.034;5.090;2022-08-11T07:24:39;6.43;;;3.42;;
69894;SDS011;57172;52.034;5.090;2022-08-11T07:27:39;6.27;;;3.60;;
69894;SDS011;57172;52.034;5.090;2022-08-11T07:30:28;6.50;;;3.38;;
69894;SDS011;57172;52.034;5.090;2022-08-11T07:32:58;7.28;;;3.42;;
69894;SDS011;57172;52.034;5.090;2022-08-11T07:38:02;5.88;;;3.72;;
69894;SDS011;57172;52.034;5.090;2022-08-11T07:40:33;6.97;;;3.53;;
69894;SDS011;57172;52.034;5.090;2022-08-11T07:43:02;6.22;;;3.08;;
69894;SDS011;57172;52.034;5.090;2022-08-11T07:45:30;6.78;;;3.42;;
69894;SDS011;57172;52.034;5.090;2022-08-11T07:48:15;6.30;;;3.40;;
69894;SDS011;57172;52.034;5.090;2022-08-11T07:51:02;9.15;;;3.38;;
69894;SDS011;57172;52.034;5.090;2022-08-11T07:53:48;8.27;;;3.30;;
69894;SDS011;57172;52.034;5.090;2022-08-11T07:56:31;9.18;;;3.25;;
69894;SDS011;57172;52.034;5.090;2022-08-11T07:59:19;5.30;;;3.20;;
69894;SDS011;57172;52.034;5.090;2022-08-11T08:02:26;9.60;;;3.50;;
69894;SDS011;57172;52.034;5.090;2022-08-11T08:05:12;5.47;;;3.50;;
69894;SDS011;57172;52.034;5.090;2022-08-11T08:07:59;6.37;;;3.20;;
69894;SDS011;57172;52.034;5.090;2022-08-11T08:10:45;10.85;;;3.60;;
69894;SDS011;57172;52.034;5.090;2022-08-11T08:13:30;8.73;;;3.47;;
69894;SDS011;57172;52.034;5.090;2022-08-11T08:16:17;9.40;;;3.38;;
69894;SDS011;57172;52.034;5.090;2022-08-11T08:19:04;6.43;;;3.10;;
69894;SDS011;57172;52.034;5.090;2022-08-11T08:21:31;5.73;;;3.20;;
69894;SDS011;57172;52.034;5.090;2022-08-11T08:23:58;7.15;;;3.10;;
69894;SDS011;57172;52.034;5.090;2022-08-11T08:26:26;11.32;;;3.40;;
69894;SDS011;57172;52.034;5.090;2022-08-11T08:29:17;8.30;;;2.97;;
69894;SDS011;57172;52.034;5.090;2022-08-11T08:32:04;10.23;;;3.15;;
69894;SDS011;57172;52.034;5.090;2022-08-11T08:34:33;7.40;;;3.00;;
69894;SDS011;57172;52.034;5.090;2022-08-11T08:37:02;5.18;;;3.30;;
69894;SDS011;57172;52.034;5.090;2022-08-11T08:39:51;10.93;;;3.20;;
69894;SDS011;57172;52.034;5.090;2022-08-11T08:42:21;8.98;;;3.10;;
69894;SDS011;57172;52.034;5.090;2022-08-11T08:45:01;5.00;;;3.08;;
69894;SDS011;57172;52.034;5.090;2022-08-11T08:47:37;8.00;;;2.90;;
69894;SDS011;57172;52.034;5.090;2022-08-11T08:50:19;6.18;;;2.85;;
69894;SDS011;57172;52.034;5.090;2022-08-11T08:52:53;10.05;;;3.30;;
69894;SDS011;57172;52.034;5.090;2022-08-11T08:55:25;10.15;;;3.10;;
69894;SDS011;57172;52.034;5.090;2022-08-11T08:57:54;6.45;;;3.20;;
69894;SDS011;57172;52.034;5.090;2022-08-11T09:00:23;5.70;;;2.83;;
69894;SDS011;57172;52.034;5.090;2022-08-11T09:02:50;8.85;;;2.95;;
69894;SDS011;57172;52.034;5.090;2022-08-11T09:05:17;7.28;;;3.10;;
69894;SDS011;57172;52.034;5.090;2022-08-11T09:07:44;4.65;;;2.55;;
69894;SDS011;57172;52.034;5.090;2022-08-11T09:10:16;7.18;;;3.00;;
69894;SDS011;57172;52.034;5.090;2022-08-11T09:12:45;8.03;;;3.00;;
69894;SDS011;57172;52.034;5.090;2022-08-11T09:15:14;5.35;;;2.85;;
69894;SDS011;57172;52.034;5.090;2022-08-11T09:17:46;5.43;;;3.05;;
69894;SDS011;57172;52.034;5.090;2022-08-11T09:20:19;6.57;;;2.97;;
69894;SDS011;57172;52.034;5.090;2022-08-11T09:22:50;6.10;;;2.90;;
69894;SDS011;57172;52.034;5.090;2022-08-11T09:26:00;7.93;;;2.70;;
69894;SDS011;57172;52.034;5.090;2022-08-11T09:28:45;6.03;;;2.80;;
69894;SDS011;57172;52.034;5.090;2022-08-11T09:31:14;10.07;;;3.10;;
69894;SDS011;57172;52.034;5.090;2022-08-11T09:33:42;6.07;;;2.70;;
69894;SDS011;57172;52.034;5.090;2022-08-11T09:36:11;6.93;;;2.70;;
69894;SDS011;57172;52.034;5.090;2022-08-11T09:38:57;4.30;;;2.43;;
69894;SDS011;57172;52.034;5.090;2022-08-11T09:41:46;5.28;;;2.20;;
69894;SDS011;57172;52.034;5.090;2022-08-11T09:44:28;6.50;;;2.60;;
69894;SDS011;57172;52.034;5.090;2022-08-11T09:47:22;5.30;;;2.30;;
69894;SDS011;57172;52.034;5.090;2022-08-11T09:49:52;5.68;;;2.50;;
69894;SDS011;57172;52.034;5.090;2022-08-11T09:52:24;7.30;;;2.60;;
69894;SDS011;57172;52.034;5.090;2022-08-11T09:54:52;4.75;;;2.30;;
69894;SDS011;57172;52.034;5.090;2022-08-11T09:57:20;8.00;;;2.30;;
69894;SDS011;57172;52.034;5.090;2022-08-11T10:00:07;5.63;;;2.05;;
69894;SDS011;57172;52.034;5.090;2022-08-11T10:02:43;7.50;;;2.38;;
69894;SDS011;57172;52.034;5.090;2022-08-11T10:05:13;5.17;;;2.30;;
69894;SDS011;57172;52.034;5.090;2022-08-11T10:08:01;3.80;;;2.20;;
69894;SDS011;57172;52.034;5.090;2022-08-11T10:10:29;5.97;;;2.15;;
69894;SDS011;57172;52.034;5.090;2022-08-11T10:13:02;4.03;;;1.95;;
69894;SDS011;57172;52.034;5.090;2022-08-11T10:15:56;4.28;;;1.92;;
69894;SDS011;57172;52.034;5.090;2022-08-11T10:18:42;7.60;;;1.80;;
69894;SDS011;57172;52.034;5.090;2022-08-11T10:21:29;4.13;;;1.60;;
69894;SDS011;57172;52.034;5.090;2022-08-11T10:24:02;5.97;;;1.80;;
69894;SDS011;57172;52.034;5.090;2022-08-11T10:26:51;4.07;;;1.80;;
69894;SDS011;57172;52.034;5.090;2022-08-11T10:29:25;5.80;;;1.60;;
69894;SDS011;57172;52.034;5.090;2022-08-11T10:32:18;5.30;;;1.60;;
69894;SDS011;57172;52.034;5.090;2022-08-11T10:35:25;7.78;;;1.52;;
69894;SDS011;57172;52.034;5.090;2022-08-11T10:37:54;4.57;;;1.55;;
69894;SDS011;57172;52.034;5.090;2022-08-11T10:40:35;6.07;;;1.90;;
69894;SDS011;57172;52.034;5.090;2022-08-11T10:43:04;6.32;;;1.75;;
69894;SDS011;57172;52.034;5.090;2022-08-11T10:45:39;5.03;;;1.60;;
69894;SDS011;57172;52.034;5.090;2022-08-11T10:48:30;3.88;;;1.58;;
69894;SDS011;57172;52.034;5.090;2022-08-11T10:51:03;4.35;;;1.70;;
69894;SDS011;57172;52.034;5.090;2022-08-11T10:53:44;6.78;;;1.73;;
69894;SDS011;57172;52.034;5.090;2022-08-11T10:56:38;7.22;;;1.75;;
69894;SDS011;57172;52.034;5.090;2022-08-11T10:59:25;6.07;;;1.77;;
69894;SDS011;57172;52.034;5.090;2022-08-11T11:01:55;4.00;;;1.90;;
69894;SDS011;57172;52.034;5.090;2022-08-11T11:07:35;3.88;;;2.10;;
69894;SDS011;57172;52.034;5.090;2022-08-11T11:10:14;6.40;;;2.10;;
69894;SDS011;57172;52.034;5.090;2022-08-11T11:12:45;3.60;;;1.80;;
69894;SDS011;57172;52.034;5.090;2022-08-11T11:15:35;3.50;;;1.92;;
69894;SDS011;57172;52.034;5.090;2022-08-11T11:18:24;5.03;;;1.92;;
69894;SDS011;57172;52.034;5.090;2022-08-11T11:21:04;3.40;;;1.80;;
69894;SDS011;57172;52.034;5.090;2022-08-11T11:23:45;3.72;;;2.03;;
69894;SDS011;57172;52.034;5.090;2022-08-11T11:32:13;5.50;;;1.90;;
69894;SDS011;57172;52.034;5.090;2022-08-11T11:35:12;5.03;;;1.90;;
69894;SDS011;57172;52.034;5.090;2022-08-11T11:37:52;4.63;;;1.90;;
69894;SDS011;57172;52.034;5.090;2022-08-11T11:40:29;6.60;;;1.97;;
69894;SDS011;57172;52.034;5.090;2022-08-11T11:42:57;4.43;;;1.95;;
69894;SDS011;57172;52.034;5.090;2022-08-11T11:45:25;4.68;;;1.98;;
69894;SDS011;57172;52.034;5.090;2022-08-11T11:47:53;4.50;;;1.90;;
69894;SDS011;57172;52.034;5.090;2022-08-11T11:50:22;4.82;;;1.70;;
69894;SDS011;57172;52.034;5.090;2022-08-11T11:52:59;4.57;;;1.60;;
69894;SDS011;57172;52.034;5.090;2022-08-11T11:55:28;5.13;;;1.70;;
69894;SDS011;57172;52.034;5.090;2022-08-11T11:57:57;4.43;;;1.65;;
69894;SDS011;57172;52.034;5.090;2022-08-11T12:00:44;3.75;;;1.70;;
69894;SDS011;57172;52.034;5.090;2022-08-11T12:03:31;5.50;;;1.70;;
69894;SDS011;57172;52.034;5.090;2022-08-11T12:06:00;3.77;;;1.47;;
69894;SDS011;57172;52.034;5.090;2022-08-11T12:08:28;3.88;;;1.70;;
69894;SDS011;57172;52.034;5.090;2022-08-11T12:11:06;4.65;;;1.63;;
69894;SDS011;57172;52.034;5.090;2022-08-11T12:13:56;6.28;;;1.67;;
69894;SDS011;57172;52.034;5.090;2022-08-11T12:16:27;4.85;;;1.80;;
69894;SDS011;57172;52.034;5.090;2022-08-11T12:19:14;3.97;;;1.70;;
69894;SDS011;57172;52.034;5.090;2022-08-11T12:21:43;4.60;;;1.58;;
69894;SDS011;57172;52.034;5.090;2022-08-11T12:24:30;4.88;;;1.70;;
69894;SDS011;57172;52.034;5.090;2022-08-11T12:27:17;3.85;;;1.70;;
69894;SDS011;57172;52.034;5.090;2022-08-11T12:29:58;4.05;;;1.70;;
69894;SDS011;57172;52.034;5.090;2022-08-11T12:32:28;2.70;;;1.70;;
69894;SDS011;57172;52.034;5.090;2022-08-11T12:34:56;4.88;;;1.77;;
69894;SDS011;57172;52.034;5.090;2022-08-11T12:37:37;3.85;;;1.60;;
69894;SDS011;57172;52.034;5.090;2022-08-11T12:40:14;4.63;;;1.90;;
69894;SDS011;57172;52.034;5.090;2022-08-11T12:43:26;4.00;;;2.00;;
69894;SDS011;57172;52.034;5.090;2022-08-11T12:46:24;7.17;;;1.80;;
69894;SDS011;57172;52.034;5.090;2022-08-11T12:48:57;6.28;;;1.90;;
69894;SDS011;57172;52.034;5.090;2022-08-11T12:51:46;2.60;;;1.67;;
69894;SDS011;57172;52.034;5.090;2022-08-11T12:54:44;3.97;;;1.63;;
69894;SDS011;57172;52.034;5.090;2022-08-11T12:57:36;5.85;;;1.70;;
69894;SDS011;57172;52.034;5.090;2022-08-11T13:00:31;5.67;;;1.70;;
69894;SDS011;57172;52.034;5.090;2022-08-11T13:03:18;4.53;;;2.20;;
69894;SDS011;57172;52.034;5.090;2022-08-11T13:06:04;3.85;;;1.80;;
69894;SDS011;57172;52.034;5.090;2022-08-11T13:08:33;3.80;;;1.70;;
69894;SDS011;57172;52.034;5.090;2022-08-11T13:11:03;4.90;;;1.80;;
69894;SDS011;57172;52.034;5.090;2022-08-11T13:13:49;5.10;;;1.50;;
69894;SDS011;57172;52.034;5.090;2022-08-11T13:16:33;4.30;;;1.80;;
69894;SDS011;57172;52.034;5.090;2022-08-11T13:19:21;5.10;;;1.70;;
69894;SDS011;57172;52.034;5.090;2022-08-11T13:21:49;3.92;;;1.80;;
69894;SDS011;57172;52.034;5.090;2022-08-11T13:24:17;4.95;;;1.80;;
69894;SDS011;57172;52.034;5.090;2022-08-11T13:26:46;4.67;;;1.87;;
69894;SDS011;57172;52.034;5.090;2022-08-11T13:29:17;8.00;;;1.95;;
69894;SDS011;57172;52.034;5.090;2022-08-11T13:31:45;3.75;;;1.80;;
69894;SDS011;57172;52.034;5.090;2022-08-11T13:34:16;4.68;;;1.80;;
69894;SDS011;57172;52.034;5.090;2022-08-11T13:36:49;7.22;;;1.70;;
69894;SDS011;57172;52.034;5.090;2022-08-11T13:39:21;4.87;;;1.87;;
69894;SDS011;57172;52.034;5.090;2022-08-11T13:41:57;3.75;;;1.85;;
69894;SDS011;57172;52.034;5.090;2022-08-11T13:44:27;4.00;;;1.80;;
69894;SDS011;57172;52.034;5.090;2022-08-11T13:46:57;5.47;;;1.60;;
69894;SDS011;57172;52.034;5.090;2022-08-11T13:49:28;7.85;;;1.90;;
69894;SDS011;57172;52.034;5.090;2022-08-11T13:52:00;2.30;;;1.70;;
69894;SDS011;57172;52.034;5.090;2022-08-11T13:54:30;5.57;;;1.70;;
69894;SDS011;57172;52.034;5.090;2022-08-11T13:57:02;5.47;;;2.00;;
69894;SDS011;57172;52.034;5.090;2022-08-11T13:59:34;4.78;;;1.75;;
69894;SDS011;57172;52.034;5.090;2022-08-11T14:02:17;7.85;;;1.83;;
69894;SDS011;57172;52.034;5.090;2022-08-11T14:04:55;4.20;;;1.90;;
69894;SDS011;57172;52.034;5.090;2022-08-11T14:07:23;7.10;;;1.80;;
69894;SDS011;57172;52.034;5.090;2022-08-11T14:09:57;4.72;;;1.80;;
69894;SDS011;57172;52.034;5.090;2022-08-11T14:12:26;4.28;;;1.67;;
69894;SDS011;57172;52.034;5.090;2022-08-11T14:17:50;3.03;;;1.80;;
69894;SDS011;57172;52.034;5.090;2022-08-11T14:20:26;3.53;;;1.70;;
69894;SDS011;57172;52.034;5.090;2022-08-11T14:23:15;4.35;;;1.70;;
69894;SDS011;57172;52.034;5.090;2022-08-11T14:25:43;4.80;;;2.03;;
69894;SDS011;57172;52.034;5.090;2022-08-11T14:28:31;3.15;;;1.90;;
69894;SDS011;57172;52.034;5.090;2022-08-11T14:31:09;4.37;;;1.80;;
69894;SDS011;57172;52.034;5.090;2022-08-11T14:33:36;5.97;;;1.80;;
69894;SDS011;57172;52.034;5.090;2022-08-11T14:36:25;7.25;;;1.77;;
69894;SDS011;57172;52.034;5.090;2022-08-11T14:38:53;4.05;;;1.90;;
69894;SDS011;57172;52.034;5.090;2022-08-11T14:41:21;5.63;;;2.03;;
69894;SDS011;57172;52.034;5.090;2022-08-11T14:44:29;5.50;;;1.80;;
69894;SDS011;57172;52.034;5.090;2022-08-11T14:47:16;7.22;;;1.90;;
69894;SDS011;57172;52.034;5.090;2022-08-11T14:49:50;5.90;;;1.98;;
69894;SDS011;57172;52.034;5.090;2022-08-11T14:52:35;5.82;;;2.10;;
69894;SDS011;57172;52.034;5.090;2022-08-11T14:55:04;3.15;;;2.00;;
69894;SDS011;57172;52.034;5.090;2022-08-11T14:57:51;3.93;;;1.83;;
69894;SDS011;57172;52.034;5.090;2022-08-11T15:00:21;4.35;;;2.03;;
69894;SDS011;57172;52.034;5.090;2022-08-11T15:02:49;7.75;;;2.20;;
69894;SDS011;57172;52.034;5.090;2022-08-11T15:05:40;3.30;;;1.90;;
69894;SDS011;57172;52.034;5.090;2022-08-11T15:08:19;4.78;;;2.00;;
69894;SDS011;57172;52.034;5.090;2022-08-11T15:11:11;4.70;;;1.87;;
69894;SDS011;57172;52.034;5.090;2022-08-11T15:13:59;4.28;;;1.90;;
69894;SDS011;57172;52.034;5.090;2022-08-11T15:16:27;5.50;;;2.25;;
69894;SDS011;57172;52.034;5.090;2022-08-11T15:19:14;3.88;;;1.90;;
69894;SDS011;57172;52.034;5.090;2022-08-11T15:21:42;5.68;;;2.10;;
69894;SDS011;57172;52.034;5.090;2022-08-11T15:24:27;4.43;;;2.10;;
69894;SDS011;57172;52.034;5.090;2022-08-11T15:26:56;5.88;;;2.15;;
69894;SDS011;57172;52.034;5.090;2022-08-11T15:29:44;4.25;;;2.00;;
69894;SDS011;57172;52.034;5.090;2022-08-11T15:32:31;5.05;;;2.10;;
69894;SDS011;57172;52.034;5.090;2022-08-11T15:35:18;6.47;;;2.38;;
69894;SDS011;57172;52.034;5.090;2022-08-11T15:38:05;5.47;;;2.10;;
69894;SDS011;57172;52.034;5.090;2022-08-11T15:40:37;8.13;;;2.20;;
69894;SDS011;57172;52.034;5.090;2022-08-11T15:43:29;4.30;;;2.20;;
69894;SDS011;57172;52.034;5.090;2022-08-11T15:46:27;4.32;;;2.10;;
69894;SDS011;57172;52.034;5.090;2022-08-11T15:48:58;4.05;;;1.83;;
69894;SDS011;57172;52.034;5.090;2022-08-11T15:51:41;5.10;;;1.97;;
69894;SDS011;57172;52.034;5.090;2022-08-11T15:54:15;4.93;;;1.98;;
69894;SDS011;57172;52.034;5.090;2022-08-11T15:56:46;3.90;;;1.85;;
69894;SDS011;57172;52.034;5.090;2022-08-11T15:59:16;5.43;;;2.10;;
69894;SDS011;57172;52.034;5.090;2022-08-11T16:02:10;3.47;;;2.10;;
69894;SDS011;57172;52.034;5.090;2022-08-11T16:04:58;4.20;;;2.00;;
69894;SDS011;57172;52.034;5.090;2022-08-11T16:07:28;5.45;;;2.00;;
69894;SDS011;57172;52.034;5.090;2022-08-11T16:12:50;5.00;;;1.90;;
69894;SDS011;57172;52.034;5.090;2022-08-11T16:15:38;4.80;;;2.20;;
69894;SDS011;57172;52.034;5.090;2022-08-11T16:18:29;5.40;;;1.83;;
69894;SDS011;57172;52.034;5.090;2022-08-11T16:21:13;4.40;;;1.90;;
69894;SDS011;57172;52.034;5.090;2022-08-11T16:24:00;3.85;;;2.08;;
69894;SDS011;57172;52.034;5.090;2022-08-11T16:26:31;4.68;;;2.08;;
69894;SDS011;57172;52.034;5.090;2022-08-11T16:29:22;9.15;;;2.00;;
69894;SDS011;57172;52.034;5.090;2022-08-11T16:31:50;5.87;;;2.00;;
69894;SDS011;57172;52.034;5.090;2022-08-11T16:34:39;8.65;;;2.30;;
69894;SDS011;57172;52.034;5.090;2022-08-11T16:37:32;4.90;;;1.80;;
69894;SDS011;57172;52.034;5.090;2022-08-11T16:40:29;6.95;;;2.10;;
69894;SDS011;57172;52.034;5.090;2022-08-11T16:42:58;4.63;;;1.90;;
69894;SDS011;57172;52.034;5.090;2022-08-11T16:45:47;4.47;;;2.10;;
69894;SDS011;57172;52.034;5.090;2022-08-11T16:48:34;6.93;;;2.10;;
69894;SDS011;57172;52.034;5.090;2022-08-11T16:51:09;5.25;;;2.15;;
69894;SDS011;57172;52.034;5.090;2022-08-11T16:53:37;4.75;;;2.20;;
69894;SDS011;57172;52.034;5.090;2022-08-11T16:56:30;6.07;;;2.30;;
69894;SDS011;57172;52.034;5.090;2022-08-11T16:59:01;7.53;;;2.17;;
69894;SDS011;57172;52.034;5.090;2022-08-11T17:01:44;5.07;;;2.10;;
69894;SDS011;57172;52.034;5.090;2022-08-11T17:04:19;4.85;;;2.05;;
69894;SDS011;57172;52.034;5.090;2022-08-11T17:07:12;6.75;;;2.22;;
69894;SDS011;57172;52.034;5.090;2022-08-11T17:10:18;6.88;;;2.20;;
69894;SDS011;57172;52.034;5.090;2022-08-11T17:13:24;3.93;;;2.03;;
69894;SDS011;57172;52.034;5.090;2022-08-11T17:15:55;5.78;;;2.13;;
69894;SDS011;57172;52.034;5.090;2022-08-11T17:18:53;5.72;;;2.10;;
69894;SDS011;57172;52.034;5.090;2022-08-11T17:21:29;3.25;;;1.80;;
69894;SDS011;57172;52.034;5.090;2022-08-11T17:24:00;6.05;;;2.25;;
69894;SDS011;57172;52.034;5.090;2022-08-11T17:26:41;4.10;;;1.90;;
69894;SDS011;57172;52.034;5.090;2022-08-11T17:32:24;7.72;;;2.05;;
69894;SDS011;57172;52.034;5.090;2022-08-11T17:35:24;6.50;;;1.90;;
69894;SDS011;57172;52.034;5.090;2022-08-11T17:37:58;6.63;;;2.00;;
69894;SDS011;57172;52.034;5.090;2022-08-11T17:40:38;6.80;;;1.90;;
69894;SDS011;57172;52.034;5.090;2022-08-11T17:43:27;6.15;;;2.10;;
69894;SDS011;57172;52.034;5.090;2022-08-11T17:46:15;4.18;;;1.90;;
69894;SDS011;57172;52.034;5.090;2022-08-11T17:49:05;5.20;;;2.10;;
69894;SDS011;57172;52.034;5.090;2022-08-11T17:51:34;5.28;;;1.92;;
69894;SDS011;57172;52.034;5.090;2022-08-11T17:54:22;6.70;;;2.00;;
69894;SDS011;57172;52.034;5.090;2022-08-11T17:57:10;7.65;;;2.20;;
69894;SDS011;57172;52.034;5.090;2022-08-11T17:59:57;5.13;;;1.90;;
69894;SDS011;57172;52.034;5.090;2022-08-11T18:02:30;2.80;;;1.90;;
69894;SDS011;57172;52.034;5.090;2022-08-11T18:05:19;4.10;;;1.90;;
69894;SDS011;57172;52.034;5.090;2022-08-11T18:07:49;4.53;;;1.90;;
69894;SDS011;57172;52.034;5.090;2022-08-11T18:10:37;2.97;;;1.90;;
69894;SDS011;57172;52.034;5.090;2022-08-11T18:13:24;7.00;;;2.20;;
69894;SDS011;57172;52.034;5.090;2022-08-11T18:16:12;5.15;;;1.98;;
69894;SDS011;57172;52.034;5.090;2022-08-11T18:18:57;6.28;;;2.15;;
69894;SDS011;57172;52.034;5.090;2022-08-11T18:21:44;4.90;;;1.80;;
69894;SDS011;57172;52.034;5.090;2022-08-11T18:24:46;4.00;;;1.80;;
69894;SDS011;57172;52.034;5.090;2022-08-11T18:27:35;2.95;;;1.80;;
69894;SDS011;57172;52.034;5.090;2022-08-11T18:30:25;4.80;;;1.80;;
69894;SDS011;57172;52.034;5.090;2022-08-11T18:33:12;3.67;;;1.80;;
69894;SDS011;57172;52.034;5.090;2022-08-11T18:36:22;3.30;;;1.80;;
69894;SDS011;57172;52.034;5.090;2022-08-11T18:39:12;3.42;;;1.80;;
69894;SDS011;57172;52.034;5.090;2022-08-11T18:41:59;4.90;;;1.90;;
69894;SDS011;57172;52.034;5.090;2022-08-11T18:44:56;7.78;;;1.80;;
69894;SDS011;57172;52.034;5.090;2022-08-11T18:47:49;6.38;;;1.90;;
69894;SDS011;57172;52.034;5.090;2022-08-11T18:50:38;4.40;;;1.60;;
69894;SDS011;57172;52.034;5.090;2022-08-11T18:53:46;3.50;;;1.90;;
69894;SDS011;57172;52.034;5.090;2022-08-11T18:56:36;4.30;;;1.77;;
69894;SDS011;57172;52.034;5.090;2022-08-11T18:59:23;3.88;;;1.83;;
69894;SDS011;57172;52.034;5.090;2022-08-11T19:02:11;4.03;;;1.80;;
69894;SDS011;57172;52.034;5.090;2022-08-11T19:05:15;2.93;;;1.90;;
69894;SDS011;57172;52.034;5.090;2022-08-11T19:08:22;4.95;;;1.85;;
69894;SDS011;57172;52.034;5.090;2022-08-11T19:11:12;3.95;;;1.75;;
69894;SDS011;57172;52.034;5.090;2022-08-11T19:14:01;5.15;;;1.95;;
69894;SDS011;57172;52.034;5.090;2022-08-11T19:16:47;2.60;;;1.80;;
69894;SDS011;57172;52.034;5.090;2022-08-11T19:19:35;3.73;;;1.87;;
69894;SDS011;57172;52.034;5.090;2022-08-11T19:22:23;6.32;;;1.83;;
69894;SDS011;57172;52.034;5.090;2022-08-11T19:25:10;7.05;;;1.90;;
69894;SDS011;57172;52.034;5.090;2022-08-11T19:27:57;6.30;;;1.80;;
69894;SDS011;57172;52.034;5.090;2022-08-11T19:30:44;4.70;;;2.00;;